sensor_id;sensor_type;location;lat;lon;timestamp;P1;durP1;ratioP1;P2;durP2;ratioP2
11731;SDS011;5922;53.734;10.258;2022-12-07T00:02:41;7.73;;;6.47;;
11731;SDS011;5922;53.734;10.258;2022-12-07T00:05:18;7.63;;;5.73;;
11731;SDS011;5922;53.734;10.258;2022-12-07T00:08:05;7.17;;;6.07;;
11731;SDS011;5922;53.734;10.258;2022-12-07T00:13:55;8.50;;;6.87;;
11731;SDS011;5922;53.734;10.258;2022-12-07T00:16:39;8.37;;;7.23;;
11731;SDS011;5922;53.734;10.258;2022-12-07T00:19:25;9.30;;;6.97;;
11731;SDS011;5922;53.734;10.258;2022-12-07T00:22:16;10.53;;;7.97;;
11731;SDS011;5922;53.734;10.258;2022-12-07T00:25:03;9.43;;;7.60;;
11731;SDS011;5922;53.734;10.258;2022-12-07T00:27:47;9.80;;;7.70;;
11731;SDS011;5922;53.734;10.258;2022-12-07T00:30:30;10.53;;;8.57;;
11731;SDS011;5922;53.734;10.258;2022-12-07T00:33:07;11.47;;;8.47;;
11731;SDS011;5922;53.734;10.258;2022-12-07T00:38:45;9.50;;;7.83;;
11731;SDS011;5922;53.734;10.258;2022-12-07T00:41:29;10.90;;;8.07;;
11731;SDS011;5922;53.734;10.258;2022-12-07T00:44:10;8.90;;;7.87;;
11731;SDS011;5922;53.734;10.258;2022-12-07T00:46:57;11.77;;;7.93;;
11731;SDS011;5922;53.734;10.258;2022-12-07T00:49:31;13.07;;;8.00;;
11731;SDS011;5922;53.734;10.258;2022-12-07T00:52:33;10.40;;;8.70;;
11731;SDS011;5922;53.734;10.258;2022-12-07T00:58:00;10.77;;;8.00;;
11731;SDS011;5922;53.734;10.258;2022-12-07T01:00:42;10.67;;;7.77;;
11731;SDS011;5922;53.734;10.258;2022-12-07T01:03:26;10.03;;;7.67;;
11731;SDS011;5922;53.734;10.258;2022-12-07T01:06:27;9.33;;;7.93;;
11731;SDS011;5922;53.734;10.258;2022-12-07T01:09:18;9.70;;;7.73;;
11731;SDS011;5922;53.734;10.258;2022-12-07T01:11:59;9.23;;;7.43;;
11731;SDS011;5922;53.734;10.258;2022-12-07T01:17:42;11.47;;;7.63;;
11731;SDS011;5922;53.734;10.258;2022-12-07T01:20:36;8.73;;;7.07;;
11731;SDS011;5922;53.734;10.258;2022-12-07T01:23:14;8.40;;;7.43;;
11731;SDS011;5922;53.734;10.258;2022-12-07T01:26:01;8.43;;;6.57;;
11731;SDS011;5922;53.734;10.258;2022-12-07T01:28:44;7.87;;;6.93;;
11731;SDS011;5922;53.734;10.258;2022-12-07T01:31:33;11.37;;;7.40;;
11731;SDS011;5922;53.734;10.258;2022-12-07T01:34:12;9.27;;;7.03;;
11731;SDS011;5922;53.734;10.258;2022-12-07T01:36:47;10.37;;;7.30;;
11731;SDS011;5922;53.734;10.258;2022-12-07T01:39:27;7.87;;;6.43;;
11731;SDS011;5922;53.734;10.258;2022-12-07T01:42:18;10.37;;;6.83;;
11731;SDS011;5922;53.734;10.258;2022-12-07T01:48:01;10.57;;;7.27;;
11731;SDS011;5922;53.734;10.258;2022-12-07T01:54:02;8.07;;;5.90;;
11731;SDS011;5922;53.734;10.258;2022-12-07T01:59:37;8.60;;;5.77;;
11731;SDS011;5922;53.734;10.258;2022-12-07T02:02:30;7.47;;;5.83;;
11731;SDS011;5922;53.734;10.258;2022-12-07T02:05:11;8.37;;;5.87;;
11731;SDS011;5922;53.734;10.258;2022-12-07T02:07:41;7.40;;;5.60;;
11731;SDS011;5922;53.734;10.258;2022-12-07T02:10:18;8.63;;;5.97;;
11731;SDS011;5922;53.734;10.258;2022-12-07T02:12:54;9.37;;;6.30;;
11731;SDS011;5922;53.734;10.258;2022-12-07T02:15:39;6.87;;;5.77;;
11731;SDS011;5922;53.734;10.258;2022-12-07T02:18:17;6.73;;;5.37;;
11731;SDS011;5922;53.734;10.258;2022-12-07T02:20:54;10.10;;;6.33;;
11731;SDS011;5922;53.734;10.258;2022-12-07T02:29:44;7.83;;;5.33;;
11731;SDS011;5922;53.734;10.258;2022-12-07T02:32:40;8.17;;;6.00;;
11731;SDS011;5922;53.734;10.258;2022-12-07T02:38:31;7.07;;;5.37;;
11731;SDS011;5922;53.734;10.258;2022-12-07T02:41:09;6.33;;;4.87;;
11731;SDS011;5922;53.734;10.258;2022-12-07T02:46:40;8.47;;;5.17;;
11731;SDS011;5922;53.734;10.258;2022-12-07T02:49:33;6.70;;;4.60;;
11731;SDS011;5922;53.734;10.258;2022-12-07T02:52:13;6.47;;;4.43;;
11731;SDS011;5922;53.734;10.258;2022-12-07T02:54:50;5.10;;;4.10;;
11731;SDS011;5922;53.734;10.258;2022-12-07T02:57:35;6.90;;;3.87;;
11731;SDS011;5922;53.734;10.258;2022-12-07T03:00:09;5.60;;;3.60;;
11731;SDS011;5922;53.734;10.258;2022-12-07T03:02:52;7.17;;;3.40;;
11731;SDS011;5922;53.734;10.258;2022-12-07T03:05:51;5.90;;;3.60;;
11731;SDS011;5922;53.734;10.258;2022-12-07T03:09:05;4.93;;;3.60;;
11731;SDS011;5922;53.734;10.258;2022-12-07T03:11:53;5.17;;;3.40;;
11731;SDS011;5922;53.734;10.258;2022-12-07T03:15:06;5.63;;;3.37;;
11731;SDS011;5922;53.734;10.258;2022-12-07T03:18:07;7.83;;;3.30;;
11731;SDS011;5922;53.734;10.258;2022-12-07T03:20:59;5.70;;;3.33;;
11731;SDS011;5922;53.734;10.258;2022-12-07T03:23:40;3.60;;;2.53;;
11731;SDS011;5922;53.734;10.258;2022-12-07T03:26:35;5.47;;;2.77;;
11731;SDS011;5922;53.734;10.258;2022-12-07T03:29:24;4.00;;;3.33;;
11731;SDS011;5922;53.734;10.258;2022-12-07T03:32:12;4.90;;;2.93;;
11731;SDS011;5922;53.734;10.258;2022-12-07T03:35:05;3.73;;;2.80;;
11731;SDS011;5922;53.734;10.258;2022-12-07T03:38:04;3.47;;;2.50;;
11731;SDS011;5922;53.734;10.258;2022-12-07T03:40:48;4.20;;;2.43;;
11731;SDS011;5922;53.734;10.258;2022-12-07T03:43:39;3.83;;;2.57;;
11731;SDS011;5922;53.734;10.258;2022-12-07T03:46:20;5.00;;;2.87;;
11731;SDS011;5922;53.734;10.258;2022-12-07T03:49:25;4.60;;;3.07;;
11731;SDS011;5922;53.734;10.258;2022-12-07T03:52:08;5.30;;;2.20;;
11731;SDS011;5922;53.734;10.258;2022-12-07T03:54:53;4.70;;;2.33;;
11731;SDS011;5922;53.734;10.258;2022-12-07T03:57:46;3.33;;;2.17;;
11731;SDS011;5922;53.734;10.258;2022-12-07T04:00:30;2.90;;;1.80;;
11731;SDS011;5922;53.734;10.258;2022-12-07T04:03:12;5.07;;;2.13;;
11731;SDS011;5922;53.734;10.258;2022-12-07T04:08:42;7.37;;;2.07;;
11731;SDS011;5922;53.734;10.258;2022-12-07T04:11:29;3.20;;;2.33;;
11731;SDS011;5922;53.734;10.258;2022-12-07T04:13:58;4.40;;;2.10;;
11731;SDS011;5922;53.734;10.258;2022-12-07T04:16:44;2.57;;;1.80;;
11731;SDS011;5922;53.734;10.258;2022-12-07T04:19:14;2.87;;;1.80;;
11731;SDS011;5922;53.734;10.258;2022-12-07T04:21:46;2.57;;;2.00;;
11731;SDS011;5922;53.734;10.258;2022-12-07T04:24:15;2.30;;;1.80;;
11731;SDS011;5922;53.734;10.258;2022-12-07T04:26:45;2.90;;;2.37;;
11731;SDS011;5922;53.734;10.258;2022-12-07T04:29:18;4.10;;;1.93;;
11731;SDS011;5922;53.734;10.258;2022-12-07T04:31:45;2.70;;;2.10;;
11731;SDS011;5922;53.734;10.258;2022-12-07T04:34:15;2.83;;;2.27;;
11731;SDS011;5922;53.734;10.258;2022-12-07T04:36:43;3.77;;;2.10;;
11731;SDS011;5922;53.734;10.258;2022-12-07T04:39:13;2.40;;;2.17;;
11731;SDS011;5922;53.734;10.258;2022-12-07T04:41:42;2.33;;;1.93;;
11731;SDS011;5922;53.734;10.258;2022-12-07T04:44:09;3.90;;;2.30;;
11731;SDS011;5922;53.734;10.258;2022-12-07T04:46:37;2.10;;;1.90;;
11731;SDS011;5922;53.734;10.258;2022-12-07T04:49:04;2.33;;;1.93;;
11731;SDS011;5922;53.734;10.258;2022-12-07T04:51:31;3.70;;;2.40;;
11731;SDS011;5922;53.734;10.258;2022-12-07T04:53:58;4.13;;;2.30;;
11731;SDS011;5922;53.734;10.258;2022-12-07T04:56:26;3.17;;;2.37;;
11731;SDS011;5922;53.734;10.258;2022-12-07T04:58:55;4.30;;;2.10;;
11731;SDS011;5922;53.734;10.258;2022-12-07T05:01:24;3.40;;;2.30;;
11731;SDS011;5922;53.734;10.258;2022-12-07T05:03:54;4.03;;;2.10;;
11731;SDS011;5922;53.734;10.258;2022-12-07T05:06:24;2.73;;;2.03;;
11731;SDS011;5922;53.734;10.258;2022-12-07T05:08:51;3.07;;;1.80;;
11731;SDS011;5922;53.734;10.258;2022-12-07T05:11:23;3.27;;;1.97;;
11731;SDS011;5922;53.734;10.258;2022-12-07T05:14:08;2.70;;;2.27;;
11731;SDS011;5922;53.734;10.258;2022-12-07T05:16:35;4.93;;;2.30;;
11731;SDS011;5922;53.734;10.258;2022-12-07T05:19:03;3.63;;;2.27;;
11731;SDS011;5922;53.734;10.258;2022-12-07T05:21:30;3.83;;;2.10;;
11731;SDS011;5922;53.734;10.258;2022-12-07T05:23:58;4.17;;;2.33;;
11731;SDS011;5922;53.734;10.258;2022-12-07T05:26:25;4.40;;;2.43;;
11731;SDS011;5922;53.734;10.258;2022-12-07T05:28:52;4.53;;;2.40;;
11731;SDS011;5922;53.734;10.258;2022-12-07T05:31:21;3.43;;;2.30;;
11731;SDS011;5922;53.734;10.258;2022-12-07T05:33:54;3.37;;;2.60;;
11731;SDS011;5922;53.734;10.258;2022-12-07T05:36:21;3.70;;;2.33;;
11731;SDS011;5922;53.734;10.258;2022-12-07T05:38:49;3.53;;;2.27;;
11731;SDS011;5922;53.734;10.258;2022-12-07T05:41:18;2.40;;;2.20;;
11731;SDS011;5922;53.734;10.258;2022-12-07T05:44:04;3.10;;;2.50;;
11731;SDS011;5922;53.734;10.258;2022-12-07T05:46:33;3.43;;;2.23;;
11731;SDS011;5922;53.734;10.258;2022-12-07T05:49:00;3.00;;;2.60;;
11731;SDS011;5922;53.734;10.258;2022-12-07T05:51:28;3.00;;;2.43;;
11731;SDS011;5922;53.734;10.258;2022-12-07T05:53:55;5.30;;;2.30;;
11731;SDS011;5922;53.734;10.258;2022-12-07T05:56:22;5.27;;;2.47;;
11731;SDS011;5922;53.734;10.258;2022-12-07T05:58:52;3.17;;;2.20;;
11731;SDS011;5922;53.734;10.258;2022-12-07T06:01:39;3.60;;;2.57;;
11731;SDS011;5922;53.734;10.258;2022-12-07T06:04:06;4.90;;;2.90;;
11731;SDS011;5922;53.734;10.258;2022-12-07T06:06:36;4.13;;;2.53;;
11731;SDS011;5922;53.734;10.258;2022-12-07T06:09:03;6.30;;;2.70;;
11731;SDS011;5922;53.734;10.258;2022-12-07T06:11:31;4.00;;;2.77;;
11731;SDS011;5922;53.734;10.258;2022-12-07T06:14:20;5.13;;;2.73;;
11731;SDS011;5922;53.734;10.258;2022-12-07T06:16:49;3.50;;;2.63;;
11731;SDS011;5922;53.734;10.258;2022-12-07T06:19:16;3.60;;;2.57;;
11731;SDS011;5922;53.734;10.258;2022-12-07T06:21:43;4.80;;;2.87;;
11731;SDS011;5922;53.734;10.258;2022-12-07T06:24:18;4.33;;;2.70;;
11731;SDS011;5922;53.734;10.258;2022-12-07T06:26:48;4.63;;;3.23;;
11731;SDS011;5922;53.734;10.258;2022-12-07T06:29:17;3.77;;;2.63;;
11731;SDS011;5922;53.734;10.258;2022-12-07T06:31:45;6.10;;;3.17;;
11731;SDS011;5922;53.734;10.258;2022-12-07T06:34:16;3.77;;;3.07;;
11731;SDS011;5922;53.734;10.258;2022-12-07T06:36:50;3.53;;;3.00;;
11731;SDS011;5922;53.734;10.258;2022-12-07T06:39:20;7.50;;;3.20;;
11731;SDS011;5922;53.734;10.258;2022-12-07T06:41:48;4.63;;;3.20;;
11731;SDS011;5922;53.734;10.258;2022-12-07T06:44:16;3.37;;;2.87;;
11731;SDS011;5922;53.734;10.258;2022-12-07T06:46:44;3.13;;;2.67;;
11731;SDS011;5922;53.734;10.258;2022-12-07T06:49:11;4.03;;;2.97;;
11731;SDS011;5922;53.734;10.258;2022-12-07T06:51:40;5.77;;;3.63;;
11731;SDS011;5922;53.734;10.258;2022-12-07T06:54:10;4.63;;;3.23;;
11731;SDS011;5922;53.734;10.258;2022-12-07T06:56:37;4.37;;;2.83;;
11731;SDS011;5922;53.734;10.258;2022-12-07T06:59:05;5.47;;;2.90;;
11731;SDS011;5922;53.734;10.258;2022-12-07T07:01:32;4.43;;;3.27;;
11731;SDS011;5922;53.734;10.258;2022-12-07T07:04:00;3.43;;;3.00;;
11731;SDS011;5922;53.734;10.258;2022-12-07T07:06:30;3.43;;;3.03;;
11731;SDS011;5922;53.734;10.258;2022-12-07T07:08:58;5.27;;;2.83;;
11731;SDS011;5922;53.734;10.258;2022-12-07T07:11:31;5.53;;;3.13;;
11731;SDS011;5922;53.734;10.258;2022-12-07T07:13:58;7.70;;;3.40;;
11731;SDS011;5922;53.734;10.258;2022-12-07T07:16:28;6.17;;;3.90;;
11731;SDS011;5922;53.734;10.258;2022-12-07T07:18:56;4.70;;;3.47;;
11731;SDS011;5922;53.734;10.258;2022-12-07T07:21:23;5.50;;;3.37;;
11731;SDS011;5922;53.734;10.258;2022-12-07T07:23:51;5.37;;;3.13;;
11731;SDS011;5922;53.734;10.258;2022-12-07T07:26:19;5.03;;;3.80;;
11731;SDS011;5922;53.734;10.258;2022-12-07T07:28:47;3.83;;;3.37;;
11731;SDS011;5922;53.734;10.258;2022-12-07T07:31:14;8.37;;;3.60;;
11731;SDS011;5922;53.734;10.258;2022-12-07T07:33:41;7.33;;;3.97;;
11731;SDS011;5922;53.734;10.258;2022-12-07T07:36:08;4.73;;;3.40;;
11731;SDS011;5922;53.734;10.258;2022-12-07T07:38:38;4.53;;;3.17;;
11731;SDS011;5922;53.734;10.258;2022-12-07T07:41:05;4.33;;;3.20;;
11731;SDS011;5922;53.734;10.258;2022-12-07T07:43:34;5.30;;;3.67;;
11731;SDS011;5922;53.734;10.258;2022-12-07T07:46:01;4.37;;;2.77;;
11731;SDS011;5922;53.734;10.258;2022-12-07T07:48:28;5.03;;;3.00;;
11731;SDS011;5922;53.734;10.258;2022-12-07T07:50:56;5.63;;;3.30;;
11731;SDS011;5922;53.734;10.258;2022-12-07T07:53:23;4.37;;;2.93;;
11731;SDS011;5922;53.734;10.258;2022-12-07T07:55:53;5.77;;;2.70;;
11731;SDS011;5922;53.734;10.258;2022-12-07T07:58:20;7.90;;;2.80;;
11731;SDS011;5922;53.734;10.258;2022-12-07T08:00:49;7.23;;;2.60;;
11731;SDS011;5922;53.734;10.258;2022-12-07T08:03:19;2.80;;;2.50;;
11731;SDS011;5922;53.734;10.258;2022-12-07T08:05:51;6.50;;;2.67;;
11731;SDS011;5922;53.734;10.258;2022-12-07T08:08:18;4.33;;;2.93;;
11731;SDS011;5922;53.734;10.258;2022-12-07T08:10:46;7.13;;;2.47;;
11731;SDS011;5922;53.734;10.258;2022-12-07T08:13:14;4.73;;;2.77;;
11731;SDS011;5922;53.734;10.258;2022-12-07T08:15:43;8.37;;;2.73;;
11731;SDS011;5922;53.734;10.258;2022-12-07T08:18:16;4.20;;;2.50;;
11731;SDS011;5922;53.734;10.258;2022-12-07T08:20:46;5.33;;;2.80;;
11731;SDS011;5922;53.734;10.258;2022-12-07T08:23:18;4.77;;;2.47;;
11731;SDS011;5922;53.734;10.258;2022-12-07T08:25:50;4.27;;;2.90;;
11731;SDS011;5922;53.734;10.258;2022-12-07T08:28:17;6.03;;;2.67;;
11731;SDS011;5922;53.734;10.258;2022-12-07T08:30:44;6.03;;;2.80;;
11731;SDS011;5922;53.734;10.258;2022-12-07T08:33:12;6.83;;;2.70;;
11731;SDS011;5922;53.734;10.258;2022-12-07T08:35:50;6.30;;;2.50;;
11731;SDS011;5922;53.734;10.258;2022-12-07T08:38:19;6.63;;;2.60;;
11731;SDS011;5922;53.734;10.258;2022-12-07T08:40:53;5.93;;;2.73;;
11731;SDS011;5922;53.734;10.258;2022-12-07T08:43:23;5.07;;;2.27;;
11731;SDS011;5922;53.734;10.258;2022-12-07T08:45:57;4.90;;;2.80;;
11731;SDS011;5922;53.734;10.258;2022-12-07T08:48:30;3.30;;;2.03;;
11731;SDS011;5922;53.734;10.258;2022-12-07T08:50:59;3.43;;;2.17;;
11731;SDS011;5922;53.734;10.258;2022-12-07T08:53:28;4.73;;;2.27;;
11731;SDS011;5922;53.734;10.258;2022-12-07T08:56:00;3.73;;;2.17;;
11731;SDS011;5922;53.734;10.258;2022-12-07T08:58:30;7.07;;;2.47;;
11731;SDS011;5922;53.734;10.258;2022-12-07T09:01:00;3.43;;;2.40;;
11731;SDS011;5922;53.734;10.258;2022-12-07T09:03:27;4.33;;;2.17;;
11731;SDS011;5922;53.734;10.258;2022-12-07T09:05:54;3.63;;;1.90;;
11731;SDS011;5922;53.734;10.258;2022-12-07T09:08:25;2.80;;;1.80;;
11731;SDS011;5922;53.734;10.258;2022-12-07T09:10:56;4.33;;;1.90;;
11731;SDS011;5922;53.734;10.258;2022-12-07T09:13:23;5.43;;;2.10;;
11731;SDS011;5922;53.734;10.258;2022-12-07T09:15:50;6.13;;;2.23;;
11731;SDS011;5922;53.734;10.258;2022-12-07T09:18:17;4.47;;;1.90;;
11731;SDS011;5922;53.734;10.258;2022-12-07T09:20:47;6.23;;;2.20;;
11731;SDS011;5922;53.734;10.258;2022-12-07T09:23:14;10.57;;;2.20;;
11731;SDS011;5922;53.734;10.258;2022-12-07T09:25:50;4.27;;;2.27;;
11731;SDS011;5922;53.734;10.258;2022-12-07T09:28:17;3.30;;;1.83;;
11731;SDS011;5922;53.734;10.258;2022-12-07T09:30:45;5.27;;;2.00;;
11731;SDS011;5922;53.734;10.258;2022-12-07T09:33:13;9.50;;;1.87;;
11731;SDS011;5922;53.734;10.258;2022-12-07T09:35:43;5.10;;;2.10;;
11731;SDS011;5922;53.734;10.258;2022-12-07T09:38:16;3.80;;;2.10;;
11731;SDS011;5922;53.734;10.258;2022-12-07T09:40:50;6.33;;;2.10;;
11731;SDS011;5922;53.734;10.258;2022-12-07T09:43:18;5.23;;;1.80;;
11731;SDS011;5922;53.734;10.258;2022-12-07T09:45:46;5.03;;;1.90;;
11731;SDS011;5922;53.734;10.258;2022-12-07T09:48:16;6.37;;;1.90;;
11731;SDS011;5922;53.734;10.258;2022-12-07T09:50:44;5.53;;;1.80;;
11731;SDS011;5922;53.734;10.258;2022-12-07T09:53:18;8.07;;;2.00;;
11731;SDS011;5922;53.734;10.258;2022-12-07T09:55:47;5.50;;;1.80;;
11731;SDS011;5922;53.734;10.258;2022-12-07T09:58:21;4.97;;;2.07;;
11731;SDS011;5922;53.734;10.258;2022-12-07T10:00:55;3.73;;;1.60;;
11731;SDS011;5922;53.734;10.258;2022-12-07T10:03:23;5.87;;;1.70;;
11731;SDS011;5922;53.734;10.258;2022-12-07T10:05:53;5.63;;;1.70;;
11731;SDS011;5922;53.734;10.258;2022-12-07T10:08:21;6.17;;;1.70;;
11731;SDS011;5922;53.734;10.258;2022-12-07T10:10:58;5.90;;;2.00;;
11731;SDS011;5922;53.734;10.258;2022-12-07T10:13:35;9.63;;;1.70;;
11731;SDS011;5922;53.734;10.258;2022-12-07T10:16:02;4.93;;;2.17;;
11731;SDS011;5922;53.734;10.258;2022-12-07T10:18:36;4.67;;;1.97;;
11731;SDS011;5922;53.734;10.258;2022-12-07T10:21:04;4.47;;;1.60;;
11731;SDS011;5922;53.734;10.258;2022-12-07T10:23:33;5.67;;;1.80;;
11731;SDS011;5922;53.734;10.258;2022-12-07T10:26:12;5.40;;;1.87;;
11731;SDS011;5922;53.734;10.258;2022-12-07T10:28:48;5.07;;;1.57;;
11731;SDS011;5922;53.734;10.258;2022-12-07T10:31:15;7.30;;;2.03;;
11731;SDS011;5922;53.734;10.258;2022-12-07T10:33:48;3.37;;;1.63;;
11731;SDS011;5922;53.734;10.258;2022-12-07T10:36:17;5.13;;;1.70;;
11731;SDS011;5922;53.734;10.258;2022-12-07T10:38:46;6.10;;;1.87;;
11731;SDS011;5922;53.734;10.258;2022-12-07T10:41:13;4.83;;;1.77;;
11731;SDS011;5922;53.734;10.258;2022-12-07T10:43:49;9.17;;;1.80;;
11731;SDS011;5922;53.734;10.258;2022-12-07T10:46:29;8.23;;;1.93;;
11731;SDS011;5922;53.734;10.258;2022-12-07T10:49:01;7.57;;;2.07;;
11731;SDS011;5922;53.734;10.258;2022-12-07T10:51:30;4.93;;;1.80;;
11731;SDS011;5922;53.734;10.258;2022-12-07T10:54:03;4.93;;;1.87;;
11731;SDS011;5922;53.734;10.258;2022-12-07T10:56:46;4.17;;;1.60;;
11731;SDS011;5922;53.734;10.258;2022-12-07T10:59:24;8.77;;;1.93;;
11731;SDS011;5922;53.734;10.258;2022-12-07T11:01:57;3.00;;;1.77;;
11731;SDS011;5922;53.734;10.258;2022-12-07T11:04:30;10.63;;;2.70;;
11731;SDS011;5922;53.734;10.258;2022-12-07T11:07:10;6.23;;;2.00;;
11731;SDS011;5922;53.734;10.258;2022-12-07T11:09:47;7.70;;;2.50;;
11731;SDS011;5922;53.734;10.258;2022-12-07T11:12:19;8.60;;;2.30;;
11731;SDS011;5922;53.734;10.258;2022-12-07T11:14:52;3.07;;;1.83;;
11731;SDS011;5922;53.734;10.258;2022-12-07T11:17:23;11.30;;;2.13;;
11731;SDS011;5922;53.734;10.258;2022-12-07T11:19:55;7.67;;;2.37;;
11731;SDS011;5922;53.734;10.258;2022-12-07T11:22:28;8.47;;;2.43;;
11731;SDS011;5922;53.734;10.258;2022-12-07T11:24:57;7.73;;;1.77;;
11731;SDS011;5922;53.734;10.258;2022-12-07T11:27:31;6.03;;;1.90;;
11731;SDS011;5922;53.734;10.258;2022-12-07T11:30:12;4.33;;;1.60;;
11731;SDS011;5922;53.734;10.258;2022-12-07T11:32:47;8.67;;;2.03;;
11731;SDS011;5922;53.734;10.258;2022-12-07T11:35:18;6.43;;;2.30;;
11731;SDS011;5922;53.734;10.258;2022-12-07T11:37:49;9.20;;;2.00;;
11731;SDS011;5922;53.734;10.258;2022-12-07T11:40:17;7.63;;;2.13;;
11731;SDS011;5922;53.734;10.258;2022-12-07T11:42:49;7.87;;;2.13;;
11731;SDS011;5922;53.734;10.258;2022-12-07T11:45:22;8.43;;;2.57;;
11731;SDS011;5922;53.734;10.258;2022-12-07T11:47:51;8.20;;;2.33;;
11731;SDS011;5922;53.734;10.258;2022-12-07T11:50:24;6.17;;;2.87;;
11731;SDS011;5922;53.734;10.258;2022-12-07T11:52:53;9.13;;;2.50;;
11731;SDS011;5922;53.734;10.258;2022-12-07T11:55:24;11.07;;;2.13;;
11731;SDS011;5922;53.734;10.258;2022-12-07T11:57:54;6.07;;;1.90;;
11731;SDS011;5922;53.734;10.258;2022-12-07T12:00:25;3.47;;;2.00;;
11731;SDS011;5922;53.734;10.258;2022-12-07T12:02:53;5.83;;;1.70;;
11731;SDS011;5922;53.734;10.258;2022-12-07T12:05:22;6.80;;;1.93;;
11731;SDS011;5922;53.734;10.258;2022-12-07T12:07:52;8.43;;;2.03;;
11731;SDS011;5922;53.734;10.258;2022-12-07T12:10:24;4.97;;;1.77;;
11731;SDS011;5922;53.734;10.258;2022-12-07T12:12:59;7.00;;;1.90;;
11731;SDS011;5922;53.734;10.258;2022-12-07T12:15:33;4.60;;;1.83;;
11731;SDS011;5922;53.734;10.258;2022-12-07T12:18:07;9.50;;;1.73;;
11731;SDS011;5922;53.734;10.258;2022-12-07T12:20:37;3.60;;;1.43;;
11731;SDS011;5922;53.734;10.258;2022-12-07T12:23:09;6.97;;;2.10;;
11731;SDS011;5922;53.734;10.258;2022-12-07T12:25:39;3.87;;;1.63;;
11731;SDS011;5922;53.734;10.258;2022-12-07T12:28:10;2.97;;;1.43;;
11731;SDS011;5922;53.734;10.258;2022-12-07T12:30:45;5.57;;;2.83;;
11731;SDS011;5922;53.734;10.258;2022-12-07T12:33:30;5.50;;;1.30;;
11731;SDS011;5922;53.734;10.258;2022-12-07T12:38:47;3.03;;;1.43;;
11731;SDS011;5922;53.734;10.258;2022-12-07T12:43:57;6.90;;;1.47;;
11731;SDS011;5922;53.734;10.258;2022-12-07T12:46:38;4.17;;;1.50;;
11731;SDS011;5922;53.734;10.258;2022-12-07T12:49:32;3.27;;;1.20;;
11731;SDS011;5922;53.734;10.258;2022-12-07T12:52:00;4.57;;;1.50;;
11731;SDS011;5922;53.734;10.258;2022-12-07T12:54:29;5.00;;;1.40;;
11731;SDS011;5922;53.734;10.258;2022-12-07T12:56:58;4.80;;;1.37;;
11731;SDS011;5922;53.734;10.258;2022-12-07T12:59:28;2.87;;;1.10;;
11731;SDS011;5922;53.734;10.258;2022-12-07T13:01:58;7.13;;;1.60;;
11731;SDS011;5922;53.734;10.258;2022-12-07T13:13:29;3.30;;;1.13;;
11731;SDS011;5922;53.734;10.258;2022-12-07T13:18:40;2.47;;;1.10;;
11731;SDS011;5922;53.734;10.258;2022-12-07T13:23:54;3.57;;;1.07;;
11731;SDS011;5922;53.734;10.258;2022-12-07T13:26:22;2.33;;;1.20;;
11731;SDS011;5922;53.734;10.258;2022-12-07T13:28:50;1.33;;;0.90;;
11731;SDS011;5922;53.734;10.258;2022-12-07T13:31:32;4.70;;;1.47;;
11731;SDS011;5922;53.734;10.258;2022-12-07T13:34:01;2.93;;;1.30;;
11731;SDS011;5922;53.734;10.258;2022-12-07T13:36:29;1.53;;;1.10;;
11731;SDS011;5922;53.734;10.258;2022-12-07T13:39:09;5.00;;;1.07;;
11731;SDS011;5922;53.734;10.258;2022-12-07T13:41:37;4.90;;;1.17;;
11731;SDS011;5922;53.734;10.258;2022-12-07T13:44:08;7.23;;;1.27;;
11731;SDS011;5922;53.734;10.258;2022-12-07T13:46:43;4.73;;;1.03;;
11731;SDS011;5922;53.734;10.258;2022-12-07T13:49:20;2.10;;;1.20;;
11731;SDS011;5922;53.734;10.258;2022-12-07T13:55:11;2.13;;;1.00;;
11731;SDS011;5922;53.734;10.258;2022-12-07T13:57:40;7.93;;;1.43;;
11731;SDS011;5922;53.734;10.258;2022-12-07T14:00:13;2.77;;;1.23;;
11731;SDS011;5922;53.734;10.258;2022-12-07T14:02:53;4.47;;;1.60;;
11731;SDS011;5922;53.734;10.258;2022-12-07T14:05:24;2.37;;;1.30;;
11731;SDS011;5922;53.734;10.258;2022-12-07T14:07:53;4.60;;;0.97;;
11731;SDS011;5922;53.734;10.258;2022-12-07T14:10:23;3.03;;;1.17;;
11731;SDS011;5922;53.734;10.258;2022-12-07T14:12:50;2.03;;;0.90;;
11731;SDS011;5922;53.734;10.258;2022-12-07T14:15:19;3.73;;;1.10;;
11731;SDS011;5922;53.734;10.258;2022-12-07T14:17:49;6.43;;;1.30;;
11731;SDS011;5922;53.734;10.258;2022-12-07T14:20:32;3.17;;;0.80;;
11731;SDS011;5922;53.734;10.258;2022-12-07T14:22:59;1.83;;;0.87;;
11731;SDS011;5922;53.734;10.258;2022-12-07T14:25:44;1.90;;;1.03;;
11731;SDS011;5922;53.734;10.258;2022-12-07T14:28:24;1.33;;;0.83;;
11731;SDS011;5922;53.734;10.258;2022-12-07T14:30:51;7.20;;;1.47;;
11731;SDS011;5922;53.734;10.258;2022-12-07T14:33:19;4.63;;;1.53;;
11731;SDS011;5922;53.734;10.258;2022-12-07T14:35:54;6.33;;;1.30;;
11731;SDS011;5922;53.734;10.258;2022-12-07T14:38:23;2.00;;;1.00;;
11731;SDS011;5922;53.734;10.258;2022-12-07T14:40:51;4.23;;;1.00;;
11731;SDS011;5922;53.734;10.258;2022-12-07T14:43:18;6.00;;;1.23;;
11731;SDS011;5922;53.734;10.258;2022-12-07T14:45:46;3.93;;;1.30;;
11731;SDS011;5922;53.734;10.258;2022-12-07T14:48:14;5.80;;;1.10;;
11731;SDS011;5922;53.734;10.258;2022-12-07T14:50:42;1.30;;;1.00;;
11731;SDS011;5922;53.734;10.258;2022-12-07T14:53:12;1.53;;;1.00;;
11731;SDS011;5922;53.734;10.258;2022-12-07T14:55:40;3.93;;;1.33;;
11731;SDS011;5922;53.734;10.258;2022-12-07T14:58:10;6.17;;;3.27;;
11731;SDS011;5922;53.734;10.258;2022-12-07T15:00:39;4.97;;;2.90;;
11731;SDS011;5922;53.734;10.258;2022-12-07T15:03:06;5.53;;;2.20;;
11731;SDS011;5922;53.734;10.258;2022-12-07T15:05:33;4.70;;;1.60;;
11731;SDS011;5922;53.734;10.258;2022-12-07T15:08:01;4.13;;;1.87;;
11731;SDS011;5922;53.734;10.258;2022-12-07T15:10:30;5.87;;;1.80;;
11731;SDS011;5922;53.734;10.258;2022-12-07T15:13:07;4.27;;;2.10;;
11731;SDS011;5922;53.734;10.258;2022-12-07T15:15:52;3.73;;;1.97;;
11731;SDS011;5922;53.734;10.258;2022-12-07T15:18:20;6.57;;;2.17;;
11731;SDS011;5922;53.734;10.258;2022-12-07T15:20:48;5.07;;;1.70;;
11731;SDS011;5922;53.734;10.258;2022-12-07T15:23:15;4.97;;;1.97;;
11731;SDS011;5922;53.734;10.258;2022-12-07T15:25:45;4.80;;;2.37;;
11731;SDS011;5922;53.734;10.258;2022-12-07T15:28:12;8.20;;;2.30;;
11731;SDS011;5922;53.734;10.258;2022-12-07T15:30:40;3.93;;;2.43;;
11731;SDS011;5922;53.734;10.258;2022-12-07T15:33:08;5.93;;;2.40;;
11731;SDS011;5922;53.734;10.258;2022-12-07T15:35:45;3.83;;;2.27;;
11731;SDS011;5922;53.734;10.258;2022-12-07T15:38:15;5.00;;;2.47;;
11731;SDS011;5922;53.734;10.258;2022-12-07T15:40:46;5.00;;;2.00;;
11731;SDS011;5922;53.734;10.258;2022-12-07T15:43:13;3.33;;;1.90;;
11731;SDS011;5922;53.734;10.258;2022-12-07T15:45:54;3.77;;;1.70;;
11731;SDS011;5922;53.734;10.258;2022-12-07T15:48:21;2.73;;;1.73;;
11731;SDS011;5922;53.734;10.258;2022-12-07T15:50:48;3.90;;;1.40;;
11731;SDS011;5922;53.734;10.258;2022-12-07T15:53:16;3.37;;;2.10;;
11731;SDS011;5922;53.734;10.258;2022-12-07T15:55:44;2.27;;;1.30;;
11731;SDS011;5922;53.734;10.258;2022-12-07T15:58:11;1.83;;;1.40;;
11731;SDS011;5922;53.734;10.258;2022-12-07T16:00:39;1.43;;;1.30;;
11731;SDS011;5922;53.734;10.258;2022-12-07T16:03:06;3.37;;;1.87;;
11731;SDS011;5922;53.734;10.258;2022-12-07T16:05:33;3.73;;;2.30;;
11731;SDS011;5922;53.734;10.258;2022-12-07T16:08:00;5.53;;;1.90;;
11731;SDS011;5922;53.734;10.258;2022-12-07T16:10:28;5.67;;;2.07;;
11731;SDS011;5922;53.734;10.258;2022-12-07T16:12:56;3.70;;;2.03;;
11731;SDS011;5922;53.734;10.258;2022-12-07T16:15:24;5.43;;;2.10;;
11731;SDS011;5922;53.734;10.258;2022-12-07T16:18:00;5.10;;;2.07;;
11731;SDS011;5922;53.734;10.258;2022-12-07T16:20:28;5.47;;;2.03;;
11731;SDS011;5922;53.734;10.258;2022-12-07T16:22:55;7.67;;;2.20;;
11731;SDS011;5922;53.734;10.258;2022-12-07T16:25:22;4.90;;;2.13;;
11731;SDS011;5922;53.734;10.258;2022-12-07T16:27:50;4.50;;;1.80;;